Terminal Aerodrome Forecast
Issued by NWS

Home | Current Version | Previous Version | Graphics & Text | Print | Product List | Glossary On
Versions: 1 2 3 4 5 6 7 8 9 10 11 12 13 14 15 16 17 18 19 20
000
FTUS43 KGRB 292332
TAFMTW
TAF
KMTW 292332Z 3000/3024 03011KT P6SM SCT015 SCT110
      TEMPO 3000/3002 BKN015
     FM300400 03010KT P6SM SCT040 BKN110
     FM300700 03010KT P6SM SCT015 BKN035
      TEMPO 3008/3012 BKN015
     FM301200 03011KT P6SM VCSH BKN015 OVC030 PROB30 3013/3017 4SM
      -SHRA
     FM301900 05009KT 5SM -SHRA BR SCT007 OVC015
      TEMPO 3020/3024 3SM -SHRA BR OVC007=

USA.gov is the U.S. government's official web portal to all federal, state and local government web resources and services.